ADDS METAR Data INFO
IDs: Format: Raw Decoded Include TAF

Data at: 2041 UTC 19 Jul 2018

KACP 192035Z AUTO 30005KT 10SM CLR 35/23 A2991 RMK AO2 T03450230
KACP 192015Z AUTO 26005KT 10SM CLR 34/22 A2991 RMK AO2 T03400220
KACP 191955Z AUTO 22006KT 10SM CLR 34/22 A2992 RMK AO2 T03420219
KACP 191935Z AUTO 23006KT 10SM CLR 34/22 A2992 RMK AO2 T03420220
KACP 191915Z AUTO 28003KT 10SM CLR 34/22 A2993 RMK AO2 T03390221
KACP 191855Z AUTO 24005KT 10SM CLR 34/22 A2993 RMK AO2 T03350223
KACP 191835Z AUTO 22003KT 10SM CLR 34/23 A2993 RMK AO2 T03360232
KACP 191815Z AUTO 25008KT 230V290 10SM CLR 33/24 A2994 RMK AO2 T03290235
KACP 191755Z AUTO 22006KT 10SM CLR 33/23 A2995 RMK AO2 T03260228 10326 20256
KACP 191735Z AUTO 22005KT 10SM CLR 32/23 A2996 RMK AO2 T03200234
KACP 191715Z AUTO 26004KT 10SM CLR 31/23 A2996 RMK AO2 T03110228
KACP 191655Z AUTO 31005KT 10SM CLR 31/23 A2996 RMK AO2 T03100233
KACP 191635Z AUTO 27006KT 10SM CLR 31/24 A2997 RMK AO2 T03090235
KACP 191615Z AUTO 21007KT 10SM CLR 31/23 A2997 RMK AO2 T03100234
KACP 191555Z AUTO 26004KT 10SM SCT017 30/24 A2997 RMK AO2 T03030240
KACP 191535Z AUTO 25004KT 10SM SCT017 29/24 A2997 RMK AO2 T02930237
KACP 191515Z AUTO 29004KT 10SM BKN013 29/25 A2997 RMK AO2 T02910247
KACP 191455Z AUTO 28004KT 10SM BKN009 28/25 A2997 RMK AO2 T02800248
KACP 191435Z AUTO 00000KT 10SM SCT009 27/25 A2997 RMK AO2 T02740247
KACP 191415Z AUTO 00000KT 7SM SCT009 27/25 A2998 RMK AO2 T02690247
KACP 191355Z AUTO 00000KT 10SM CLR 26/25 A2998 RMK AO2 T02640245
KACP 191335Z AUTO 00000KT 7SM CLR 26/25 A2998 RMK AO2 T02620247
KACP 191315Z AUTO 00000KT 7SM CLR 26/25 A2997 RMK AO2 T02600245
KACP 191255Z AUTO 00000KT 7SM CLR 26/24 A2996 RMK AO2 T02570244
KACP 191235Z AUTO 00000KT 7SM CLR 26/24 A2996 RMK AO2 T02570243
KACP 191215Z AUTO 00000KT 7SM CLR 26/24 A2996 RMK AO2 T02570242
KACP 191155Z AUTO 00000KT 7SM CLR 26/24 A2994 RMK AO2 T02570241 10260 20254
KACP 191135Z AUTO 00000KT 7SM CLR 26/24 A2994 RMK AO2 T02570240
KACP 191115Z AUTO 22003KT 10SM CLR 26/24 A2993 RMK AO2 T02580241
KACP 191055Z AUTO 23003KT 10SM CLR 26/24 A2993 RMK AO2 T02580240
KACP 191035Z AUTO 23003KT 10SM CLR 26/24 A2992 RMK AO2 T02580240
KACP 191015Z AUTO 00000KT 10SM CLR 26/24 A2992 RMK AO2 T02590241
KACP 190955Z AUTO 24003KT 10SM CLR 26/24 A2992 RMK AO2 T02590241
KACP 190935Z AUTO 00000KT 10SM CLR 26/24 A2992 RMK AO2 T02590242
KACP 190915Z AUTO 00000KT 10SM CLR 26/24 A2991 RMK AO2 T02580242
KACP 190855Z AUTO 24003KT 7SM CLR 26/24 A2991 RMK AO2 T02570243
KACP 190835Z AUTO 23003KT 7SM CLR 26/24 A2991 RMK AO2 T02560243
KACP 190815Z AUTO 00000KT 7SM CLR 26/24 A2991 RMK AO2 T02560242
KACP 190755Z AUTO 22003KT 7SM CLR 26/24 A2990 RMK AO2 T02570242
KACP 190735Z AUTO 00000KT 10SM CLR 26/24 A2990 RMK AO2 T02570242
KACP 190715Z AUTO 22003KT 10SM CLR 26/25 A2991 RMK AO2 T02600245
KACP 190655Z AUTO 21003KT 7SM CLR 26/25 A2991 RMK AO2 T02580245
KACP 190635Z AUTO 00000KT 7SM CLR 26/25 A2992 RMK AO2 T02570245
KACP 190615Z AUTO 00000KT 7SM CLR 26/24 A2992 RMK AO2 T02550244
KACP 190555Z AUTO 00000KT 7SM CLR 25/24 A2993 RMK AO2 T02530243 10282 20245
KACP 190535Z AUTO 00000KT 5SM BR CLR 25/24 A2993 RMK AO2 T02470237
KACP 190515Z AUTO 00000KT 5SM BR CLR 25/24 A2994 RMK AO2 T02480237
KACP 190455Z AUTO 00000KT 7SM CLR 25/24 A2994 RMK AO2 T02500240 403380245
KACP 190435Z AUTO 00000KT 7SM CLR 25/24 A2994 RMK AO2 T02460235
KACP 190415Z AUTO 00000KT 7SM CLR 25/24 A2994 RMK AO2 T02490237
KACP 190355Z AUTO 00000KT 7SM CLR 25/24 A2994 RMK AO2 T02500239
KACP 190335Z AUTO 00000KT 7SM CLR 25/24 A2995 RMK AO2 T02540241
KACP 190315Z AUTO 00000KT 7SM CLR 25/24 A2995 RMK AO2 T02520241
KACP 190255Z AUTO 00000KT 7SM CLR 26/24 A2995 RMK AO2 T02560241
KACP 190235Z AUTO 00000KT 10SM CLR 26/25 A2995 RMK AO2 T02600246
KACP 190215Z AUTO 00000KT 5SM BR CLR 26/25 A2994 RMK AO2 T02600248
KACP 190155Z AUTO 00000KT 7SM CLR 26/25 A2994 RMK AO2 T02630250
KACP 190135Z AUTO 00000KT 7SM CLR 27/25 A2994 RMK AO2 T02700253
KACP 190115Z AUTO 00000KT 10SM CLR 27/25 A2994 RMK AO2 T02720250
KACP 190055Z AUTO 00000KT 10SM SCT095 28/25 A2994 RMK AO2 T02750247
KACP 190035Z AUTO 00000KT 10SM BKN095 28/25 A2994 RMK AO2 T02800250
KACP 190015Z AUTO 00000KT 10SM OVC095 28/25 A2994 RMK AO2 T02810252
KACP 182355Z AUTO 00000KT 10SM BKN095 28/25 A2994 RMK AO2 T02820254 10338 20282
KACP 182335Z AUTO 00000KT 10SM CLR 28/25 A2994 RMK AO2 T02830248
KACP 182315Z AUTO 00000KT 10SM -RA CLR 29/25 A2993 RMK AO2 T02850248
KACP 182255Z AUTO 00000KT 10SM -RA SCT046 SCT075 29/25 A2993 RMK AO2 T02900246
KACP 182235Z AUTO 00000KT 10SM CLR 29/25 A2993 RMK AO2 T02910246
KACP 182215Z AUTO 00000KT 10SM CLR 29/25 A2994 RMK AO2 LTG DSNT E T02910246
KACP 182155Z AUTO 00000KT 10SM CLR 29/25 A2994 RMK AO2 T02870248
KACP 182135Z AUTO 00000KT 10SM CLR 29/24 A2995 RMK AO2 T02870242
KACP 182115Z AUTO 00000KT 10SM CLR 29/24 A2995 RMK AO2 T02930237
KACP 182055Z AUTO 34005KT 10SM TS SCT044 SCT049 SCT095 29/23 A2995 RMK AO2 LTG DSNT E T02930232
KACP 182035Z AUTO 33009KT 300V360 10SM SCT044 BKN100 31/25 A2996 RMK AO2 LTG DSNT E T03140245
KACP 182015Z AUTO 28003KT 10SM SCT041 SCT100 32/24 A2996 RMK AO2 LTG DSNT E T03200237
KACP 181955Z AUTO 22003KT 10SM VCTS SCT041 SCT050 34/24 A2996 RMK AO2 LTG DSNT N AND NE T03370240
KACP 181935Z AUTO 32005KT 10SM VCTS SCT039 SCT045 SCT050 34/23 A2998 RMK AO2 LTG DSNT NE AND E T03370233
KACP 181915Z AUTO 30005KT 10SM SCT038 SCT095 34/24 A2998 RMK AO2 LTG DSNT NE AND S T03350238
KACP 181855Z AUTO 00000KT 10SM SCT038 BKN095 33/23 A2999 RMK AO2 T03280233
KACP 181835Z AUTO 00000KT 10SM SCT036 33/23 A2999 RMK AO2 T03300234
KACP 181815Z AUTO 24005KT 10SM SCT034 33/24 A3000 RMK AO2 T03290242
KACP 181755Z AUTO 00000KT 10SM SCT032 33/24 A3000 RMK AO2 T03270240 10328 20250
KACP 181735Z AUTO 27003KT 10SM SCT030 SCT039 SCT095 32/24 A3001 RMK AO2 T03180242
KACP 181715Z AUTO 20003KT 10SM SCT028 SCT039 BKN095 32/24 A3001 RMK AO2 T03160241
KACP 181655Z AUTO 26003KT 10SM SCT028 BKN095 32/24 A3001 RMK AO2 T03150243
KACP 181635Z AUTO 24004KT 10SM SCT095 31/24 A3001 RMK AO2 T03130239
KACP 181615Z AUTO 24005KT 10SM CLR 31/24 A3001 RMK AO2 T03130239
KACP 181555Z AUTO 23007KT 10SM SCT025 SCT100 31/24 A3001 RMK AO2 T03090239
KACP 181535Z AUTO 26006KT 10SM CLR 30/24 A3002 RMK AO2 T03040238
KACP 181515Z AUTO 25005KT 10SM SCT110 30/24 A3002 RMK AO2 T03000241
KACP 181455Z AUTO 28004KT 10SM SCT110 29/24 A3002 RMK AO2 T02940238
KACP 181435Z AUTO 25007KT 10SM CLR 29/24 A3002 RMK AO2 T02930240
KACP 181415Z AUTO 24008KT 10SM CLR 29/24 A3002 RMK AO2 T02870238
KACP 181355Z AUTO 24006KT 10SM SCT008 SCT012 28/24 A3002 RMK AO2 T02800244
KACP 181335Z AUTO 26005KT 10SM BKN008 27/25 A3002 RMK AO2 LTG DSNT N T02720246
KACP 181315Z AUTO 26004KT 10SM BKN004 BKN120 26/25 A3002 RMK AO2 T02640246
KACP 181255Z AUTO 23005KT 7SM BKN004 26/25 A3002 RMK AO2 T02600247
KACP 181235Z AUTO 00000KT 5SM BR SCT004 26/25 A3001 RMK AO2 T02550245
KACP 181215Z AUTO 00000KT 5SM BR SCT004 25/24 A3001 RMK AO2 T02500240
KACP 181155Z AUTO 00000KT 5SM BR CLR 25/24 A3001 RMK AO2 T02500240 10267 20250
KACP 181135Z AUTO 00000KT 5SM BR CLR 25/24 A3001 RMK AO2 T02500240
KACP 181115Z AUTO 00000KT 5SM BR SCT100 25/24 A3001 RMK AO2 T02500240
KACP 181055Z AUTO 00000KT 7SM BKN100 25/24 A3001 RMK AO2 T02510241
KACP 181035Z AUTO 20003KT 7SM OVC100 25/24 A3001 RMK AO2 T02510241
KACP 181015Z AUTO 00000KT 7SM SCT100 25/24 A3001 RMK AO2 T02500240
KACP 180955Z AUTO 00000KT 7SM CLR 25/24 A3000 RMK AO2 T02510240
KACP 180935Z AUTO 00000KT 7SM CLR 25/24 A3000 RMK AO2 T02500240
KACP 180915Z AUTO 00000KT 7SM CLR 25/24 A2999 RMK AO2 T02520241
KACP 180855Z AUTO 00000KT 7SM CLR 26/24 A2999 RMK AO2 T02550242